Date,TemperatureHighF,TemperatureAvgF,TemperatureLowF,DewpointHighF,DewpointAvgF,DewpointLowF,HumidityHigh,HumidityAvg,HumidityLow,PressureMaxIn,PressureMinIn,WindSpeedMaxMPH,WindSpeedAvgMPH,GustSpeedMaxMPH,PrecipitationSumIn
2013-1-1,37.0,27.2,14.0,26.0,14.5,1.0,86,60,38,0.00,40.00,10,6,29,0.05
2013-1-2,24.0,14.8,9.0,4.0,1.0,-3.0,65,54,42,0.00,40.00,10,7,25,0.01
2013-1-3,26.0,16.3,8.0,8.0,3.7,-1.0,73,58,46,0.00,40.00,9,5,25,0.00
2013-1-4,36.0,27.0,12.0,27.0,18.4,5.0,88,71,53,0.00,40.00,9,4,19,0.01
2013-1-5,38.0,30.9,15.0,26.0,12.3,-99.9,72,54,41,0.00,40.00,10,5,31,0.01
2013-1-6,36.0,26.3,14.0,33.0,22.3,7.0,94,85,62,0.00,40.00,6,2,15,0.08
2013-1-7,27.0,19.9,8.0,24.0,13.0,4.0,89,75,51,0.00,40.00,9,5,19,0.01
2013-1-8,42.0,35.3,26.0,33.0,26.9,19.0,89,72,57,0.00,40.00,13,6,31,0.01
2013-1-9,43.0,35.0,24.0,38.0,29.7,23.0,94,81,62,0.00,40.00,9,4,20,0.01
2013-1-10,45.0,39.1,33.0,32.0,25.8,20.0,76,59,45,0.00,40.00,12,8,33,0.01
2013-1-11,37.0,31.8,27.0,26.0,20.4,17.0,79,63,48,0.00,40.00,6,3,15,0.00
2013-1-12,44.0,38.5,32.0,39.0,32.5,27.0,93,79,64,0.00,40.00,5,3,9,0.00
2013-1-13,47.0,43.4,40.0,47.0,42.7,38.0,99,98,93,0.00,40.00,11,5,19,0.03
2013-1-14,48.0,45.4,38.0,48.0,42.0,26.0,99,89,61,0.00,40.00,11,7,23,0.01
2013-1-15,40.0,34.1,28.0,26.0,23.0,18.0,87,64,48,0.00,40.00,6,3,12,0.00
2013-1-16,38.0,33.9,30.0,35.0,27.3,15.0,95,79,49,0.00,40.00,8,5,17,0.71
2013-1-17,42.0,32.6,16.0,39.0,23.1,-5.0,96,70,38,0.00,40.00,10,6,23,0.19
2013-1-18,20.0,14.7,9.0,1.0,-4.5,-8.0,52,42,34,0.00,40.00,10,6,25,0.00
2013-1-19,40.0,31.6,20.0,33.0,24.6,0.0,96,77,40,0.00,40.00,14,6,30,0.10
2013-1-20,49.0,41.7,27.0,40.0,31.5,13.0,95,68,42,0.00,40.00,13,8,29,0.10
2013-1-21,27.0,22.0,16.0,17.0,3.0,-4.0,85,45,27,0.00,40.00,9,5,24,0.00
2013-1-22,20.0,15.0,11.0,16.0,6.6,-9.0,87,70,40,0.00,40.00,11,6,25,0.00
2013-1-23,11.0,6.3,2.0,-8.0,-10.9,-13.0,53,44,35,0.00,40.00,11,7,28,0.00
2013-1-24,17.0,7.2,1.0,-4.0,-7.3,-10.0,69,52,32,0.00,40.00,11,7,31,0.00
2013-1-25,24.0,14.1,6.0,4.0,-0.5,-6.0,63,52,38,0.00,40.00,10,6,28,0.00
2013-1-26,24.0,15.8,11.0,3.0,-4.6,-99.9,62,45,35,0.00,40.00,9,6,26,0.00
2013-1-27,25.0,18.0,12.0,7.0,3.1,0.0,65,52,40,0.00,40.00,10,8,26,0.00
2013-1-28,30.0,21.9,16.0,21.0,6.4,0.0,89,54,29,0.00,40.00,6,4,17,0.00
2013-1-29,38.0,28.4,18.0,28.0,22.5,16.0,92,79,56,0.00,40.00,5,2,10,0.02
2013-1-30,51.0,44.8,37.0,51.0,42.8,30.0,99,93,76,0.00,40.00,14,10,34,0.11
2013-1-31,54.0,43.6,34.0,53.0,33.9,15.0,98,70,46,0.00,40.00,18,12,39,0.30
2013-2-1,33.0,26.9,17.0,16.0,7.7,3.0,53,44,33,0.00,40.00,9,7,25,0.02
2013-2-2,27.0,20.9,14.0,22.0,1.3,-99.9,91,52,34,0.00,40.00,9,5,23,0.00
2013-2-3,30.0,25.0,22.0,22.0,19.2,15.0,90,79,68,0.00,40.00,9,6,18,0.04
2013-2-4,30.0,23.3,17.0,15.0,8.9,-5.0,78,55,35,0.00,40.00,9,7,25,0.02
2013-2-5,28.0,17.0,9.0,5.0,-3.3,-7.0,66,41,23,0.00,40.00,7,4,25,0.01
2013-2-6,37.0,28.4,20.0,30.0,18.0,-4.0,92,66,31,0.00,40.00,9,5,21,0.13
2013-2-7,20.0,13.9,11.0,3.0,-10.7,-99.9,54,38,29,0.00,40.00,8,6,21,0.01
2013-2-8,24.0,17.4,10.0,20.0,10.8,-9.0,89,76,41,0.00,40.00,16,9,33,0.00
2013-2-9,19.0,16.2,13.0,16.0,8.6,-99.9,89,84,86,0.00,40.00,21,16,51,0.00
2013-2-10,33.0,20.3,15.0,31.0,12.2,-99.9,95,85,88,0.00,40.00,9,5,25,0.00
2013-2-11,43.0,32.9,12.0,42.0,21.9,-99.9,98,87,83,0.00,40.00,9,5,20,0.51
2013-2-12,42.0,36.1,33.0,37.0,22.3,-99.9,98,78,65,0.00,40.00,6,3,16,0.09
2013-2-13,48.0,35.8,29.0,29.0,20.4,-99.9,92,69,44,0.00,40.00,5,3,11,0.01
2013-2-14,33.0,28.8,24.0,28.0,23.1,17.0,94,79,67,0.00,40.00,4,2,10,0.00
2013-2-15,46.0,38.4,23.0,37.0,32.9,20.0,90,81,63,0.00,40.00,12,6,25,0.00
2013-2-16,39.0,33.0,29.0,37.0,30.6,26.0,97,91,78,0.00,40.00,9,4,20,0.00
2013-2-17,28.0,24.0,22.0,26.0,19.5,11.0,92,83,64,0.00,40.00,15,11,39,0.00
2013-2-18,32.0,24.7,19.0,11.0,1.6,-99.9,63,43,34,0.00,40.00,11,10,35,0.13
2013-2-19,45.0,31.0,22.0,40.0,12.3,-99.9,92,54,18,0.00,40.00,8,5,18,0.11
2013-2-20,44.0,38.4,29.0,43.0,30.5,16.0,97,74,53,0.00,40.00,9,6,22,0.70
2013-2-21,34.0,29.5,25.0,28.0,18.2,12.0,82,63,48,0.00,40.00,11,6,24,0.03
2013-2-22,39.0,31.3,26.0,25.0,15.9,-99.9,76,60,45,0.00,40.00,11,7,22,0.00
2013-2-23,35.0,31.4,29.0,27.0,19.4,-99.9,81,69,67,0.00,40.00,6,5,15,0.00
2013-2-24,34.0,31.4,28.0,31.0,29.0,25.0,95,91,76,0.00,40.00,10,6,18,0.06
2013-2-25,45.0,28.0,21.0,28.0,20.9,15.0,92,76,40,0.00,40.00,8,4,17,0.33
2013-2-26,48.0,28.8,20.0,31.0,24.7,18.0,96,86,47,0.00,40.00,4,2,8,0.04
2013-2-27,40.0,34.8,26.0,33.0,28.8,25.0,96,80,56,0.00,40.00,12,7,33,0.15
2013-2-28,44.0,38.4,33.0,42.0,37.4,32.0,97,96,92,0.00,40.00,12,6,33,0.56
2013-3-1,34.0,32.7,32.0,33.0,31.0,29.0,97,93,87,0.00,40.00,8,5,18,0.06
2013-3-2,37.0,34.0,32.0,34.0,31.7,30.0,96,91,81,0.00,40.00,5,4,14,0.17
2013-3-3,45.0,37.0,33.0,37.0,33.9,31.0,96,89,73,0.00,40.00,4,2,11,0.06
2013-3-4,36.0,33.9,32.0,33.0,30.7,28.0,96,88,76,0.00,40.00,8,6,20,0.19
2013-3-5,46.0,37.4,33.0,35.0,33.6,32.0,95,86,63,0.00,40.00,8,6,19,0.13
2013-3-6,37.0,34.4,33.0,33.0,30.1,25.0,93,84,66,0.00,40.00,11,8,32,0.11
2013-3-7,37.0,34.9,34.0,27.0,25.1,23.0,75,67,61,0.00,40.00,13,11,29,0.01
2013-3-8,45.0,36.8,32.0,27.0,23.8,22.0,81,61,41,0.00,40.00,12,11,27,0.00
2013-3-9,43.0,34.7,29.0,27.0,23.9,22.0,77,65,46,0.00,40.00,11,8,27,0.00
2013-3-10,37.0,32.5,30.0,28.0,25.1,23.0,82,74,60,0.00,40.00,5,3,10,0.00
2013-3-11,43.0,39.2,34.0,39.0,34.2,29.0,92,82,74,0.00,40.00,9,7,18,0.00
2013-3-12,51.0,45.5,41.0,45.0,42.0,39.0,95,87,74,0.00,40.00,11,9,27,0.24
2013-3-13,49.0,43.6,34.0,48.0,42.0,30.0,98,94,83,0.00,40.00,11,5,26,1.11
2013-3-14,47.0,35.9,29.0,30.0,27.4,19.0,95,73,46,0.00,40.00,9,3,21,0.01
2013-3-15,35.0,27.4,21.0,19.0,13.5,8.0,78,57,32,0.00,40.00,9,5,24,0.02
2013-3-16,38.0,30.2,23.0,21.0,15.2,8.0,79,55,33,0.00,40.00,6,3,15,0.02
2013-3-17,34.0,27.2,21.0,11.0,6.1,-1.0,58,41,26,0.00,40.00,10,6,31,0.00
2013-3-18,36.0,26.0,17.0,16.0,3.2,-2.0,63,38,22,0.00,40.00,8,4,31,0.00
2013-3-19,33.0,28.3,26.0,27.0,22.1,10.0,94,79,38,0.00,40.00,13,8,31,0.00
2013-3-20,34.0,28.5,21.0,27.0,23.1,18.0,94,80,67,0.00,40.00,13,7,28,0.33
2013-3-21,41.0,31.1,27.0,29.0,11.9,-99.9,92,58,43,0.00,40.00,8,4,20,0.06
2013-3-22,47.0,32.8,24.0,28.0,14.6,-99.9,94,56,31,0.00,40.00,7,4,18,0.01
2013-3-23,45.0,33.2,27.0,24.0,14.8,-99.9,64,53,36,0.00,40.00,9,6,20,0.00
2013-3-24,49.0,38.8,29.0,27.0,25.6,24.0,85,60,40,0.00,40.00,8,5,20,0.00
2013-3-25,45.0,35.5,25.0,31.0,28.2,24.0,94,76,53,0.00,40.00,8,4,16,0.00
2013-3-26,49.0,38.8,31.0,30.0,25.6,22.0,82,60,42,0.00,40.00,10,6,22,0.00
2013-3-27,41.0,37.5,35.0,38.0,33.0,29.0,93,84,74,0.00,40.00,7,4,17,0.17
2013-3-28,46.0,39.1,31.0,36.0,33.1,29.0,93,80,63,0.00,40.00,5,3,8,0.08
2013-3-29,55.0,42.2,32.0,37.0,28.3,-99.9,96,71,48,0.00,40.00,6,2,11,0.00
2013-3-30,55.0,41.8,30.0,33.0,30.6,23.0,93,67,29,0.00,40.00,7,3,15,0.00
2013-3-31,53.0,39.8,26.0,37.0,24.0,-99.9,93,64,22,0.00,40.00,8,4,18,0.00
2013-4-1,49.0,42.9,38.0,44.0,39.5,26.0,97,88,68,0.00,40.00,8,6,21,0.98
2013-4-2,40.0,34.0,30.0,26.0,15.8,12.0,65,48,33,0.00,40.00,8,6,23,0.03
2013-4-3,44.0,35.6,29.0,19.0,14.6,10.0,62,43,30,0.00,40.00,8,6,24,0.00
2013-4-4,47.0,38.4,32.0,33.0,18.9,10.0,76,47,24,0.00,40.00,11,7,25,0.00
2013-4-5,48.0,42.0,39.0,36.0,33.4,27.0,85,72,55,0.00,40.00,11,8,22,0.00
2013-4-6,41.0,35.2,31.0,27.0,12.0,5.0,63,39,22,0.00,40.00,11,8,27,0.00
2013-4-7,45.0,36.2,23.0,37.0,23.2,12.0,86,60,40,0.00,40.00,15,7,33,0.01
2013-4-8,61.0,48.1,38.0,40.0,36.5,33.0,94,68,37,0.00,40.00,12,6,33,0.01
2013-4-9,44.0,41.2,39.0,41.0,37.9,33.0,97,88,66,0.00,40.00,8,4,15,0.28
2013-4-10,52.0,42.6,37.0,45.0,40.3,36.0,98,92,76,0.00,40.00,8,4,16,0.12
2013-4-11,53.0,41.8,39.0,42.0,22.3,-99.9,97,57,28,0.00,40.00,9,4,19,0.03
2013-4-12,39.0,35.5,34.0,32.0,23.2,13.0,94,64,38,0.00,40.00,9,6,23,0.35
2013-4-13,44.0,37.7,34.0,37.0,34.5,32.0,95,89,74,0.00,40.00,9,5,23,0.26
2013-4-14,52.0,40.1,35.0,41.0,31.8,-99.9,96,82,56,0.00,40.00,4,2,9,0.01
2013-4-15,48.0,39.4,32.0,37.0,34.9,31.0,96,85,64,0.00,40.00,7,4,15,0.01
2013-4-16,51.0,42.8,34.0,43.0,38.9,33.0,97,87,66,0.00,40.00,13,8,28,0.09
2013-4-17,61.0,50.2,40.0,43.0,34.6,25.0,95,59,33,0.00,40.00,12,5,23,0.10
2013-4-18,50.0,41.1,30.0,36.0,29.4,22.0,89,65,38,0.00,40.00,10,5,18,0.00
2013-4-19,59.0,51.9,44.0,54.0,41.7,-99.9,97,83,72,0.00,40.00,14,11,27,0.00
2013-4-20,54.0,46.8,43.0,53.0,39.2,-99.9,98,85,64,0.00,40.00,15,8,32,0.28
2013-4-21,52.0,43.0,31.0,34.0,24.8,21.0,86,50,30,0.00,40.00,10,5,20,0.01
2013-4-22,47.0,38.7,29.0,35.0,22.3,-99.9,85,63,47,0.00,40.00,9,4,17,0.00
2013-4-23,43.0,39.7,37.0,41.0,33.8,27.0,96,80,64,0.00,40.00,9,6,18,0.24
2013-4-24,53.0,46.4,42.0,52.0,45.3,41.0,98,95,92,0.00,40.00,10,7,22,1.34
2013-4-25,64.0,49.0,39.0,50.0,43.2,36.0,98,83,41,0.00,40.00,12,6,28,0.09
2013-4-26,54.0,45.2,36.0,37.0,32.5,28.0,93,64,38,0.00,40.00,9,4,18,0.02
2013-4-27,55.0,43.8,31.0,39.0,32.5,23.0,95,69,30,0.00,40.00,7,4,14,0.00
2013-4-28,61.0,47.6,34.0,41.0,35.1,-99.9,96,69,36,0.00,40.00,5,3,11,0.00
2013-4-29,61.0,47.8,35.0,46.0,40.2,34.0,96,77,46,0.00,40.00,5,3,10,0.00
2013-4-30,63.0,48.3,35.0,46.0,38.7,34.0,96,72,40,0.00,40.00,5,2,11,0.00
2013-5-1,61.0,49.5,36.0,42.0,35.5,29.0,92,64,29,0.00,40.00,10,4,19,0.00
2013-5-2,55.0,46.8,39.0,43.0,38.1,28.0,97,74,40,0.00,40.00,12,6,24,0.00
2013-5-3,60.0,49.0,41.0,43.0,39.6,37.0,88,71,49,0.00,40.00,7,4,20,0.00
2013-5-4,52.0,44.2,33.0,41.0,35.9,32.0,98,75,50,0.00,40.00,8,4,18,0.00
2013-5-5,57.0,45.2,33.0,40.0,36.8,32.0,98,75,47,0.00,40.00,11,4,20,0.00
2013-5-6,56.0,45.5,35.0,45.0,40.2,34.0,98,84,56,0.00,40.00,8,3,15,0.00
2013-5-7,60.0,49.3,42.0,53.0,45.9,42.0,99,89,63,0.00,40.00,9,5,17,0.00
2013-5-8,73.0,58.9,47.0,59.0,53.5,47.0,100,84,61,0.00,40.00,8,4,15,0.00
2013-5-9,58.0,53.1,50.0,57.0,52.0,49.0,100,96,87,0.00,40.00,6,3,18,0.98
2013-5-10,61.0,52.1,49.0,56.0,47.8,-99.9,100,93,77,0.00,40.00,4,2,12,0.01
2013-5-11,59.0,52.8,47.0,56.0,51.4,46.0,99,95,88,0.00,40.00,13,7,27,0.22
2013-5-12,56.0,52.1,50.0,56.0,51.0,-99.9,100,99,98,0.00,40.00,10,6,20,0.31
2013-5-13,54.0,48.6,42.0,47.0,39.2,35.0,99,71,51,0.00,40.00,11,7,26,0.01
2013-5-14,60.0,49.3,41.0,40.0,35.4,31.0,94,61,33,0.00,40.00,7,3,14,0.00
2013-5-15,61.0,48.3,35.0,47.0,38.3,32.0,98,72,33,0.00,40.00,11,6,23,0.26
2013-5-16,65.0,51.3,48.0,53.0,31.7,-99.9,99,82,53,0.00,40.00,10,6,22,0.26
2013-5-17,64.0,52.8,42.0,45.0,40.1,-99.9,87,68,40,0.00,40.00,7,3,15,0.00
2013-5-18,57.0,45.6,39.0,42.0,33.6,-99.9,97,72,54,0.00,40.00,8,4,15,0.00
2013-5-19,56.0,48.2,38.0,47.0,43.5,37.0,98,85,66,0.00,40.00,8,4,18,0.00
2013-5-20,62.0,53.3,49.0,56.0,51.2,47.0,98,93,80,0.00,40.00,9,4,20,1.00
2013-5-21,48.0,47.1,46.0,47.0,46.4,45.0,99,98,94,0.00,40.00,7,4,15,0.33
2013-5-22,51.0,48.5,47.0,49.0,47.7,46.0,99,97,91,0.00,40.00,7,4,17,0.82
2013-5-23,60.0,53.5,47.0,59.0,52.7,47.0,100,97,90,0.00,40.00,13,5,28,0.05
2013-5-24,60.0,56.5,51.0,60.0,56.0,49.0,100,98,95,0.00,40.00,12,8,32,1.30
2013-5-25,51.0,49.8,48.0,50.0,49.1,47.0,99,98,95,0.00,40.00,10,7,22,0.57
2013-5-26,52.0,47.9,45.0,48.0,46.2,42.0,98,94,86,0.00,40.00,6,4,17,0.40
2013-5-27,67.0,53.9,43.0,43.0,40.5,35.0,94,64,34,0.00,40.00,6,4,14,0.03
2013-5-28,70.0,56.5,38.0,45.0,39.1,35.0,97,56,32,0.00,40.00,9,4,19,0.00
2013-5-29,56.0,52.4,46.0,55.0,50.6,40.0,99,94,56,0.00,40.00,7,4,17,0.17
2013-5-30,76.0,61.1,50.0,63.0,56.4,50.0,100,86,63,0.00,40.00,8,4,16,0.01
2013-5-31,77.0,66.3,55.0,64.0,58.5,55.0,99,78,58,0.00,40.00,8,4,15,0.00
2013-6-1,76.0,66.5,57.0,64.0,58.7,55.0,98,77,64,0.00,40.00,9,6,19,0.00
2013-6-2,70.0,62.6,57.0,61.0,56.1,-99.9,93,84,71,0.00,40.00,13,10,30,0.00
2013-6-3,65.0,58.4,55.0,60.0,57.0,55.0,99,95,85,0.00,40.00,10,7,20,0.07
2013-6-4,68.0,56.7,49.0,56.0,42.1,-99.9,99,68,46,0.00,40.00,6,3,14,0.01
2013-6-5,66.0,54.4,48.0,50.0,38.3,-99.9,86,63,42,0.00,40.00,8,5,17,0.01
2013-6-6,68.0,53.3,45.0,53.0,40.2,-99.9,98,72,36,0.00,40.00,6,3,13,0.00
2013-6-7,60.0,52.5,50.0,51.0,35.8,-99.9,97,72,51,0.00,40.00,7,4,14,0.43
2013-6-8,63.0,55.5,50.0,57.0,53.5,49.0,98,94,80,0.00,40.00,11,6,22,2.78
2013-6-9,65.0,58.2,54.0,57.0,39.7,-99.9,97,78,70,0.00,40.00,8,4,15,0.01
2013-6-10,68.0,56.2,50.0,57.0,51.2,47.0,99,85,57,0.00,40.00,8,3,14,0.00
2013-6-11,54.0,52.2,50.0,53.0,44.8,-99.9,99,92,90,0.00,40.00,12,7,26,1.34
2013-6-12,57.0,53.9,50.0,56.0,53.2,50.0,99,97,91,0.00,40.00,6,3,13,0.41
2013-6-13,70.0,56.8,52.0,55.0,43.5,-99.9,97,80,55,0.00,40.00,5,3,13,0.08
2013-6-14,62.0,55.1,51.0,52.0,49.9,46.0,98,83,64,0.00,40.00,4,2,9,0.01
2013-6-15,78.0,55.6,48.0,51.0,41.2,-99.9,98,69,33,0.00,40.00,9,5,16,0.01
2013-6-16,72.0,61.0,55.0,54.0,51.5,47.0,89,73,42,0.00,40.00,7,5,17,0.00
2013-6-17,72.0,62.0,55.0,61.0,57.2,54.0,99,85,64,0.00,40.00,11,5,24,0.10
2013-6-18,72.0,59.9,53.0,58.0,54.3,52.0,99,83,51,0.00,40.00,7,1,15,0.03
2013-6-19,74.0,58.1,49.0,54.0,50.3,45.0,98,79,35,0.00,40.00,1,0,8,0.00
2013-6-20,75.0,59.2,47.0,57.0,49.7,46.0,96,74,42,0.00,40.00,5,0,15,0.00
2013-6-22,70.0,65.5,63.0,62.0,59.3,57.0,84,80,73,0.00,40.00,3,1,11,0.00
2013-6-23,72.0,63.6,60.0,63.0,59.4,56.0,93,87,73,0.00,40.00,3,1,13,0.02
2013-6-24,82.0,70.1,62.0,68.0,63.6,60.0,97,81,59,0.00,40.00,8,3,16,0.02
2013-6-25,78.0,68.7,61.0,66.0,63.0,59.0,98,83,63,0.00,40.00,7,3,14,0.18
2013-6-26,73.0,61.3,55.0,68.0,59.5,54.0,99,94,82,0.00,40.00,10,3,18,0.28
2013-6-27,57.0,54.3,52.0,54.0,52.3,51.0,98,94,87,0.00,40.00,8,2,19,0.07
2013-6-28,64.0,57.5,53.0,64.0,56.8,52.0,99,98,98,0.00,40.00,9,4,21,2.40
2013-6-29,66.0,63.5,61.0,65.0,62.9,61.0,99,98,90,0.00,40.00,8,4,23,0.10
2013-6-30,68.0,63.2,60.0,65.0,62.3,60.0,99,97,89,0.00,40.00,7,3,19,0.01
2013-7-1,70.0,64.6,60.0,67.0,63.6,59.0,99,97,89,0.00,40.00,3,0,11,0.09
2013-7-2,65.0,58.7,55.0,65.0,57.8,54.0,99,97,91,0.00,40.00,8,1,20,0.83
2013-7-3,70.0,61.2,56.0,64.0,59.0,55.0,99,93,78,0.00,40.00,5,1,15,0.01
2013-7-4,83.0,69.7,59.0,71.0,65.8,58.0,99,88,66,0.00,40.00,3,0,13,0.00
2013-7-5,82.0,72.2,63.0,70.0,66.6,62.0,98,84,67,0.00,40.00,4,1,15,0.00
2013-7-6,87.0,71.4,66.0,71.0,67.0,62.0,98,87,59,0.00,40.00,2,0,14,0.00
2013-7-7,84.0,68.4,62.0,66.0,56.1,-99.9,96,74,54,0.00,40.00,3,0,13,0.00
2013-7-8,75.0,66.8,60.0,67.0,62.0,54.0,97,85,71,0.00,40.00,5,0,14,0.35
2013-7-9,63.0,61.1,59.0,61.0,58.5,55.0,97,91,78,0.00,40.00,2,0,11,0.37
2013-7-10,68.0,61.2,58.0,66.0,58.4,-99.9,99,93,82,0.00,40.00,5,1,16,0.37
2013-7-11,76.0,68.3,64.0,70.0,65.9,63.0,99,92,76,0.00,40.00,8,1,19,0.02
2013-7-12,79.0,66.4,56.0,66.0,59.3,55.0,98,79,49,0.00,40.00,0,0,2,0.00
2013-7-13,78.0,65.6,54.0,62.0,58.1,53.0,98,79,54,0.00,40.00,0,0,2,0.00
2013-7-14,81.0,69.5,61.0,68.0,63.3,60.0,98,82,65,0.00,40.00,0,0,6,0.00
2013-7-15,85.0,68.5,63.0,70.0,56.0,-99.9,98,74,58,0.00,40.00,5,1,16,0.00
2013-7-16,84.0,71.7,65.0,63.0,61.6,57.0,88,71,49,0.00,40.00,3,1,13,0.00
2013-7-17,77.0,69.4,63.0,65.0,61.5,57.0,91,76,61,0.00,40.00,11,5,23,0.09
2013-7-18,83.0,71.9,64.0,69.0,63.7,54.0,98,78,48,0.00,40.00,3,1,16,0.13
2013-7-19,79.0,71.0,66.0,70.0,67.0,64.0,96,87,72,0.00,40.00,11,4,24,0.03
2013-7-20,80.0,73.0,66.0,70.0,66.4,61.0,96,80,67,0.00,40.00,7,2,17,0.01
2013-7-21,75.0,66.6,56.0,61.0,55.3,54.0,92,69,48,0.00,40.00,0,0,10,0.00
2013-7-22,74.0,60.5,54.0,64.0,55.9,49.0,98,87,45,0.00,40.00,0,0,6,0.00
2013-7-23,69.0,62.3,60.0,68.0,61.0,59.0,98,97,91,0.00,40.00,7,1,14,0.71
2013-7-24,78.0,66.6,60.0,70.0,63.5,52.0,99,90,75,0.00,40.00,6,0,12,0.11
2013-7-25,72.0,61.7,56.0,57.0,53.3,50.0,93,75,55,0.00,40.00,3,0,19,0.03
2013-7-26,66.0,62.9,59.0,65.0,61.9,57.0,99,97,94,0.00,40.00,3,0,16,2.15
2013-7-27,74.0,65.6,59.0,64.0,61.2,58.0,99,87,70,0.00,40.00,1,0,11,0.08
2013-7-28,67.0,64.0,61.0,65.0,62.4,58.0,98,95,86,0.00,40.00,3,0,13,0.60
2013-7-29,70.0,64.3,58.0,65.0,61.5,57.0,98,91,78,0.00,40.00,4,0,13,0.11
2013-7-30,73.0,64.7,60.0,66.0,61.4,59.0,99,90,69,0.00,40.00,5,1,14,0.06
2013-7-31,78.0,64.3,54.0,62.0,57.9,53.0,98,82,56,0.00,40.00,5,1,13,0.01
2013-8-1,75.0,63.7,57.0,65.0,60.3,56.0,98,89,59,0.00,40.00,2,0,13,0.00
2013-8-2,69.0,64.6,62.0,66.0,63.3,60.0,98,96,90,0.00,40.00,3,0,13,0.51
2013-8-3,71.0,63.1,57.0,63.0,60.2,57.0,99,91,70,0.00,40.00,4,0,16,0.01
2013-8-4,74.0,64.0,54.0,61.0,57.9,53.0,98,82,61,0.00,40.00,3,0,13,0.00
2013-8-5,75.0,62.8,55.0,56.0,45.3,-99.9,93,72,49,0.00,40.00,1,0,11,0.00
2013-8-6,75.0,61.3,49.0,57.0,51.8,47.0,94,73,48,0.00,40.00,3,0,15,0.00
2013-8-7,73.0,62.2,53.0,59.0,54.7,51.0,97,78,49,0.00,40.00,0,0,11,0.00
2013-8-8,67.0,64.0,61.0,65.0,53.7,-99.9,95,87,85,0.00,40.00,4,1,16,0.25
2013-8-9,70.0,67.0,64.0,69.0,65.9,62.0,98,96,94,0.00,40.00,10,3,24,0.83
2013-8-10,80.0,66.6,56.0,69.0,59.2,51.0,99,80,42,0.00,40.00,0,0,7,0.34
2013-8-11,75.0,62.0,51.0,58.0,53.9,50.0,97,77,51,0.00,40.00,1,0,10,0.00
2013-8-12,75.0,63.6,57.0,62.0,58.2,56.0,97,84,56,0.00,40.00,3,0,13,0.00
2013-8-13,71.0,64.5,58.0,66.0,62.2,57.0,98,92,83,0.00,40.00,2,0,12,0.00
2013-8-14,69.0,63.8,59.0,64.0,59.5,50.0,98,87,65,0.00,40.00,1,0,12,0.00
2013-8-15,70.0,53.2,53.0,57.0,31.5,-99.9,91,68,58,0.00,40.00,1,0,14,0.00
2013-8-16,75.0,60.8,55.0,60.0,53.6,-99.9,97,83,47,0.00,40.00,1,0,12,0.00
2013-8-17,73.0,60.4,52.0,61.0,55.6,51.0,98,86,60,0.00,40.00,0,0,2,0.00
2013-8-18,74.0,62.9,56.0,61.0,55.9,-99.9,96,82,58,0.00,40.00,1,0,11,0.00
2013-8-19,73.0,62.4,56.0,62.0,42.9,-99.9,98,78,64,0.00,40.00,4,1,15,0.00
2013-8-20,79.0,65.0,60.0,65.0,57.5,-99.9,98,83,55,0.00,40.00,2,0,11,0.00
2013-8-21,78.0,67.0,59.0,66.0,61.2,58.0,97,83,58,0.00,40.00,2,0,12,0.00
2013-8-22,76.0,68.4,63.0,65.0,63.5,61.0,96,85,69,0.00,40.00,2,0,14,0.00
2013-8-23,75.0,56.9,59.0,64.0,35.9,-99.9,97,66,44,0.00,40.00,7,2,15,0.01
2013-8-24,73.0,60.7,46.0,54.0,51.3,45.0,97,74,48,0.00,40.00,6,3,10,0.00
2013-8-25,75.0,57.7,49.0,55.0,48.1,-99.9,97,76,45,0.00,40.00,7,3,15,0.00
2013-8-26,69.0,64.0,61.0,63.0,59.5,56.0,94,86,74,0.00,40.00,9,6,18,0.02
2013-8-27,81.0,66.6,60.0,66.0,62.0,59.0,98,87,61,0.00,40.00,5,2,10,0.02
2013-8-28,73.0,63.6,60.0,63.0,60.6,58.0,96,90,70,0.00,40.00,4,2,8,0.01
2013-8-29,67.0,62.3,55.0,62.0,57.7,51.0,98,85,71,0.00,40.00,8,5,16,0.01
2013-8-30,69.0,60.3,50.0,61.0,55.5,49.0,98,86,62,0.00,40.00,9,4,18,0.00
2013-8-31,73.0,67.0,63.0,67.0,64.5,62.0,97,92,78,0.00,40.00,6,3,12,0.42
2013-9-1,77.0,66.1,62.0,70.0,62.6,-99.9,98,92,76,0.00,40.00,7,3,12,0.20
2013-9-2,67.0,62.1,58.0,66.0,61.1,57.0,98,98,97,0.00,40.00,10,6,22,1.06
2013-9-3,71.0,67.1,64.0,67.0,65.5,62.0,99,96,86,0.00,40.00,7,4,14,0.55
2013-9-4,75.0,64.1,57.0,63.0,59.9,56.0,98,88,64,0.00,40.00,9,4,16,0.04
2013-9-5,67.0,58.7,51.0,58.0,53.4,47.0,98,85,50,0.00,40.00,4,2,9,0.28
2013-9-6,65.0,55.6,42.0,51.0,47.5,41.0,98,76,51,0.00,40.00,7,4,14,0.03
2013-9-7,67.0,60.9,57.0,58.0,48.4,-99.9,94,78,69,0.00,40.00,10,7,19,0.00
2013-9-8,66.0,58.5,54.0,59.0,50.9,-99.9,97,80,56,0.00,40.00,8,5,20,0.55
2013-9-9,63.0,55.7,43.0,53.0,45.2,39.0,92,69,51,0.00,40.00,9,6,19,0.08
2013-9-10,64.0,60.5,57.0,60.0,57.1,54.0,95,89,82,0.00,40.00,9,7,18,0.00
2013-9-11,71.0,65.3,61.0,66.0,63.1,60.0,98,93,84,0.00,40.00,9,6,18,0.04
2013-9-12,68.0,65.4,61.0,67.0,56.6,-99.9,98,91,90,0.00,40.00,9,6,21,0.29
2013-9-13,67.0,63.1,60.0,65.0,62.1,58.0,99,97,92,0.00,40.00,9,3,20,0.39
2013-9-14,71.0,60.3,54.0,61.0,57.1,53.0,98,90,71,0.00,40.00,6,3,14,0.06
2013-9-15,63.0,54.0,47.0,54.0,49.0,-99.9,98,88,68,0.00,40.00,8,4,16,0.00
2013-9-16,64.0,57.0,49.0,56.0,52.8,38.0,96,86,70,0.00,40.00,8,3,18,0.05
2013-9-17,65.0,51.5,43.0,48.0,41.8,35.0,96,71,50,0.00,40.00,8,4,18,0.04
2013-9-18,56.0,44.5,42.0,52.0,43.4,41.0,98,97,88,0.00,40.00,8,2,13,0.00
2013-9-19,70.0,55.5,46.0,54.0,49.4,45.0,98,82,54,0.00,40.00,8,4,16,0.00
2013-9-20,72.0,54.3,48.0,56.0,50.9,47.0,98,90,57,0.00,40.00,4,2,9,0.00
2013-9-21,66.0,60.4,56.0,59.0,57.4,55.0,98,90,73,0.00,40.00,9,6,20,0.00
2013-9-22,66.0,61.3,57.0,64.0,57.6,-99.9,97,91,83,0.00,40.00,11,7,28,0.43
2013-9-23,59.0,54.0,49.0,51.0,37.1,-99.9,87,65,56,0.00,40.00,8,7,25,0.04
2013-9-24,55.0,51.5,48.0,45.0,42.6,41.0,82,72,65,0.00,40.00,7,6,21,0.01
2013-9-25,62.0,54.5,50.0,49.0,46.9,45.0,87,76,59,0.00,40.00,5,4,16,0.01
2013-9-26,64.0,55.9,49.0,51.0,48.6,46.0,91,77,59,0.00,40.00,6,4,13,0.00
2013-9-27,69.0,52.0,50.0,55.0,38.8,-99.9,97,76,55,0.00,40.00,4,3,10,0.00
2013-9-28,66.0,52.6,47.0,57.0,48.5,45.0,98,88,59,0.00,40.00,5,2,9,0.00
2013-9-29,64.0,51.6,43.0,56.0,46.8,-99.9,98,88,71,0.00,40.00,4,2,8,0.00
2013-9-30,64.0,53.5,44.0,55.0,49.5,43.0,98,88,56,0.00,40.00,5,2,9,0.00
2013-10-1,57.0,54.1,50.0,54.0,52.6,49.0,97,95,90,0.00,40.00,5,2,10,0.00
2013-10-2,70.0,59.6,51.0,59.0,54.5,50.0,98,84,68,0.00,40.00,9,4,16,0.00
2013-10-3,73.0,57.0,49.0,52.0,49.3,45.0,94,76,40,0.00,40.00,7,3,13,0.00
2013-10-4,69.0,58.5,46.0,52.0,49.2,44.0,92,73,50,0.00,40.00,4,2,10,0.00
2013-10-5,60.0,54.2,46.0,49.0,44.9,41.0,96,72,54,0.00,40.00,5,2,10,0.00
2013-10-6,57.0,51.6,46.0,48.0,40.4,34.0,97,68,42,0.00,40.00,7,4,15,0.03
2013-10-7,66.0,58.6,49.0,62.0,56.0,47.0,97,91,81,0.00,40.00,12,8,29,0.16
2013-10-8,64.0,57.3,48.0,63.0,47.8,41.0,97,73,47,0.00,40.00,12,5,27,0.28
2013-10-9,61.0,49.3,38.0,46.0,39.9,36.0,97,74,40,0.00,40.00,5,3,10,0.00
2013-10-10,62.0,50.3,40.0,53.0,45.5,39.0,98,85,58,0.00,40.00,6,3,12,0.00
2013-10-11,65.0,53.1,43.0,54.0,49.0,42.0,98,87,60,0.00,40.00,6,2,12,0.00
2013-10-12,56.0,52.4,43.0,52.0,47.0,42.0,97,82,67,0.00,40.00,9,6,21,0.00
2013-10-13,59.0,49.4,41.0,47.0,39.9,-99.9,98,75,47,0.00,40.00,5,3,11,0.00
2013-10-14,60.0,50.9,40.0,50.0,45.0,39.0,98,82,59,0.00,40.00,7,4,16,0.00
2013-10-15,66.0,56.3,51.0,54.0,50.7,48.0,94,82,58,0.00,40.00,5,2,9,0.00
2013-10-16,57.0,54.6,51.0,55.0,53.0,50.0,98,95,85,0.00,40.00,6,3,12,0.03
2013-10-17,57.0,53.5,47.0,56.0,52.4,46.0,98,97,93,0.00,40.00,6,3,13,0.02
2013-10-18,67.0,57.0,51.0,58.0,53.3,48.0,99,89,61,0.00,40.00,10,4,18,0.14
2013-10-19,61.0,54.5,48.0,50.0,46.2,40.0,90,74,54,0.00,40.00,6,4,14,0.03
2013-10-20,64.0,55.4,51.0,55.0,42.8,-99.9,96,67,40,0.00,40.00,7,4,16,0.02
2013-10-21,60.0,51.6,45.0,47.0,40.3,35.0,87,66,48,0.00,40.00,6,4,14,0.01
2013-10-22,61.0,55.6,51.0,54.0,50.9,42.0,94,84,76,0.00,40.00,10,6,20,0.01
2013-10-23,56.0,47.0,36.0,42.0,36.8,31.0,93,70,41,0.00,40.00,4,2,12,0.01
2013-10-24,52.0,46.8,43.0,42.0,33.2,29.0,95,61,42,0.00,40.00,7,4,20,0.06
2013-10-25,54.0,45.9,40.0,34.0,30.9,28.0,74,56,42,0.00,40.00,8,4,19,0.00
2013-10-26,51.0,45.6,38.0,38.0,31.3,25.0,66,58,43,0.00,40.00,11,6,26,0.00
2013-10-27,54.0,46.9,42.0,45.0,36.6,-99.9,96,71,53,0.00,40.00,10,4,21,0.15
2013-10-28,53.0,44.9,39.0,41.0,30.9,-99.9,71,61,49,0.00,40.00,10,6,26,0.01
2013-10-29,46.0,38.1,28.0,27.0,25.4,23.0,91,62,42,0.00,40.00,6,3,15,0.00
2013-10-30,49.0,41.1,28.0,34.0,28.4,24.0,94,63,43,0.00,40.00,5,3,12,0.00
2013-10-31,56.0,45.1,30.0,55.0,40.3,28.0,96,84,57,0.00,40.00,12,6,27,0.37
2013-11-1,62.0,58.3,56.0,60.0,56.3,52.0,97,93,85,0.00,40.00,16,13,38,0.79
2013-11-2,60.0,53.0,45.0,52.0,47.9,44.0,97,84,61,0.00,40.00,7,4,23,0.01
2013-11-3,50.0,40.0,36.0,44.0,25.2,-99.9,89,59,43,0.00,40.00,11,8,24,0.10
2013-11-4,43.0,36.1,30.0,23.0,19.9,17.0,74,52,39,0.00,40.00,9,6,19,0.01
2013-11-5,47.0,40.0,27.0,36.0,31.0,25.0,95,71,52,0.00,40.00,6,4,13,0.00
2013-11-6,54.0,49.4,44.0,49.0,42.1,36.0,88,76,66,0.00,40.00,11,7,23,0.00
2013-11-7,57.0,52.4,43.0,54.0,49.6,33.0,97,90,75,0.00,40.00,12,8,25,0.23
2013-11-8,47.0,41.9,38.0,33.0,25.7,22.0,68,53,43,0.00,40.00,9,6,25,0.02
2013-11-9,46.0,38.8,28.0,26.0,21.0,-99.9,83,52,39,0.00,40.00,8,5,22,0.00
2013-11-10,48.0,40.6,31.0,44.0,36.8,27.0,95,86,75,0.00,40.00,6,3,18,0.06
2013-11-11,49.0,43.0,38.0,39.0,33.4,27.0,86,69,50,0.00,40.00,9,4,20,0.01
2013-11-12,49.0,37.5,31.0,38.0,23.6,15.0,76,57,51,0.00,40.00,10,7,25,0.01
2013-11-13,36.0,31.3,28.0,18.0,14.7,11.0,61,50,39,0.00,40.00,10,6,25,0.01
2013-11-14,48.0,39.4,31.0,31.0,26.1,15.0,88,60,42,0.00,40.00,8,4,18,0.00
2013-11-15,52.0,42.6,32.0,41.0,35.2,30.0,96,77,56,0.00,40.00,8,4,18,0.00
2013-11-16,50.0,41.4,36.0,44.0,37.4,-99.9,98,90,77,0.00,40.00,5,2,11,0.00
2013-11-17,54.0,45.3,35.0,49.0,42.1,34.0,98,90,70,0.00,40.00,9,4,19,0.02
2013-11-18,57.0,52.6,44.0,56.0,50.7,43.0,97,93,81,0.00,40.00,15,8,32,0.47
2013-11-19,46.0,40.1,35.0,45.0,27.5,18.0,96,63,42,0.00,40.00,11,7,29,0.30
2013-11-20,40.0,34.9,31.0,20.0,15.3,12.0,54,45,33,0.00,40.00,11,7,31,0.00
2013-11-21,49.0,37.2,28.0,30.0,22.8,12.0,76,57,22,0.00,40.00,6,4,13,0.00
2013-11-22,44.0,39.6,34.0,31.0,27.0,22.0,84,62,41,0.00,40.00,5,2,13,0.00
2013-11-23,43.0,37.9,32.0,41.0,23.2,-99.9,96,60,36,0.00,40.00,12,6,30,0.04
2013-11-24,32.0,25.7,23.0,18.0,9.2,6.0,56,49,42,0.00,40.00,13,10,32,0.01
2013-11-25,36.0,25.6,21.0,18.0,6.4,2.0,58,44,28,0.00,40.00,11,7,33,0.00
2013-11-26,40.0,36.2,33.0,35.0,28.7,21.0,91,75,54,0.00,40.00,10,5,25,0.01
2013-11-27,57.0,51.2,36.0,56.0,50.2,34.0,97,96,93,0.00,40.00,17,9,37,2.12
2013-11-28,44.0,33.3,24.0,42.0,20.9,6.0,94,62,41,0.00,40.00,11,6,26,0.27
2013-11-29,28.0,24.1,22.0,13.0,9.0,8.0,67,52,44,0.00,40.00,8,6,22,0.01
2013-11-30,36.0,24.9,19.0,23.0,12.1,-99.9,80,61,37,0.00,40.00,9,4,22,0.00
2013-12-1,44.0,40.2,34.0,39.0,33.2,22.0,96,77,57,0.00,40.00,10,6,22,0.19
2013-12-2,46.0,43.3,39.0,44.0,41.5,38.0,97,93,86,0.00,40.00,9,6,21,0.68
2013-12-3,42.0,40.0,37.0,41.0,38.4,32.0,97,94,83,0.00,40.00,10,4,25,0.13
2013-12-4,43.0,38.3,34.0,32.0,28.8,26.0,82,69,58,0.00,40.00,10,7,23,0.00
2013-12-5,50.0,35.4,27.0,48.0,32.5,25.0,97,89,78,0.00,40.00,7,3,17,0.02
2013-12-6,50.0,46.4,41.0,49.0,43.1,28.0,98,90,60,0.00,40.00,9,5,17,0.08
2013-12-7,40.0,34.2,28.0,29.0,19.3,10.0,84,55,37,0.00,40.00,8,5,22,0.10
2013-12-8,30.0,26.6,25.0,10.0,8.1,6.0,51,45,38,0.00,40.00,8,5,24,0.00
2013-12-9,40.0,31.7,24.0,39.0,24.6,5.0,95,77,43,0.00,40.00,7,6,19,0.13
2013-12-10,38.0,32.7,27.0,37.0,27.2,11.0,96,81,52,0.00,40.00,11,4,26,0.10
2013-12-11,32.0,27.5,23.0,17.0,11.1,8.0,69,50,38,0.00,40.00,11,6,32,0.01
2013-12-12,25.0,18.9,15.0,11.0,1.9,-5.0,56,47,39,0.00,40.00,8,5,23,0.00
2013-12-13,27.0,20.5,11.0,10.0,4.2,-3.0,62,49,37,0.00,40.00,9,6,26,0.00
2013-12-14,18.0,11.1,6.0,13.0,-3.7,-99.9,79,54,37,0.00,40.00,8,4,17,0.00
2013-12-15,32.0,22.6,16.0,31.0,20.2,13.0,97,90,85,0.00,40.00,17,9,37,1.27
2013-12-16,26.0,20.2,11.0,19.0,12.0,0.0,88,71,57,0.00,40.00,9,5,24,0.01
2013-12-17,23.0,14.0,0.0,21.0,7.7,-6.0,91,76,62,0.00,40.00,8,5,18,0.15
2013-12-18,28.0,24.3,22.0,26.0,20.8,17.0,94,86,76,0.00,40.00,8,5,19,0.57
2013-12-19,36.0,30.4,21.0,31.0,25.6,17.0,89,82,78,0.00,40.00,4,2,11,0.01
2013-12-20,41.0,35.2,30.0,38.0,32.7,28.0,97,90,79,0.00,40.00,5,2,9,0.02
2013-12-21,41.0,35.8,34.0,40.0,33.2,-99.9,97,94,91,0.00,40.00,6,3,11,0.29
2013-12-22,35.0,33.0,32.0,34.0,31.7,30.0,96,95,92,0.00,40.00,8,6,19,0.60
2013-12-23,34.0,32.0,31.0,33.0,31.0,30.0,96,96,95,0.00,40.00,7,6,14,0.15
2013-12-24,25.0,24.0,23.0,18.0,17.5,17.0,76,74,73,0.00,40.00,6,6,13,0.00
2013-12-25,23.0,17.3,10.0,11.0,8.7,6.0,85,69,58,0.00,40.00,7,4,16,0.00
2013-12-26,38.0,28.8,12.0,33.0,24.5,9.0,95,84,68,0.00,40.00,7,4,14,0.17
2013-12-27,37.0,28.5,22.0,24.0,21.6,19.0,91,75,58,0.00,40.00,8,4,20,0.17
2013-12-28,39.0,31.8,20.0,31.0,24.6,-99.9,94,78,69,0.00,40.00,10,5,26,0.00
2013-12-29,45.0,35.3,28.0,38.0,33.1,27.0,97,92,75,0.00,40.00,8,3,17,0.84
2013-12-30,34.0,25.5,13.0,33.0,20.1,2.0,96,80,58,0.00,40.00,11,5,26,0.89
2013-12-31,16.0,11.8,8.0,8.0,2.6,0.0,83,66,51,0.00,40.00,6,4,16,0.00
2014-1-1,26.0,17.4,7.0,10.0,4.2,-2.0,85,57,41,0.00,40.00,8,5,20,0.00
2014-1-2,9.0,2.4,0.0,-2.0,-4.9,-7.0,77,71,61,0.00,40.00,12,9,26,0.00